sim
Sign-in with your pilot id or email,
or register
Callsign
Passwort

Schedule Details

Flight Number: OEO6737
Departure: Los Angeles International Airport (KLAX) at 03:50
Arrival: Munich Airport (EDDM) at 15:20

Weather Information
Getting current METAR information for KLAX 181353Z 09004KT 10SM FEW009 FEW045 SCT140 BKN170 18/15 A2987 RMK AO2 SLP112 FU FEW045 FU SCT140 T01780150 $
Getting current METAR information for EDDM 181420Z 09012KT CAVOK 19/09 Q1024 NOSIG

Schedule Frequency

Route Map